sensor_id;sensor_type;location;lat;lon;timestamp;temperature;humidity
17988;DHT22;9119;50.932;5.342;2022-09-03T00:00:23;20.50;99.90
17988;DHT22;9119;50.932;5.342;2022-09-03T00:03:23;20.50;99.90
17988;DHT22;9119;50.932;5.342;2022-09-03T00:06:05;20.50;99.90
17988;DHT22;9119;50.932;5.342;2022-09-03T00:11:24;20.50;99.90
17988;DHT22;9119;50.932;5.342;2022-09-03T00:13:58;20.40;99.90
17988;DHT22;9119;50.932;5.342;2022-09-03T00:16:29;20.40;99.90
17988;DHT22;9119;50.932;5.342;2022-09-03T00:19:01;20.40;99.90
17988;DHT22;9119;50.932;5.342;2022-09-03T00:24:39;20.40;99.90
17988;DHT22;9119;50.932;5.342;2022-09-03T00:27:12;20.30;99.90
17988;DHT22;9119;50.932;5.342;2022-09-03T00:29:48;20.30;99.90
17988;DHT22;9119;50.932;5.342;2022-09-03T00:32:28;20.30;99.90
17988;DHT22;9119;50.932;5.342;2022-09-03T00:35:03;20.50;99.90
17988;DHT22;9119;50.932;5.342;2022-09-03T00:37:31;20.30;99.90
17988;DHT22;9119;50.932;5.342;2022-09-03T00:39:58;20.30;99.90
17988;DHT22;9119;50.932;5.342;2022-09-03T00:48:20;20.20;99.90
17988;DHT22;9119;50.932;5.342;2022-09-03T00:59:10;20.20;99.90
17988;DHT22;9119;50.932;5.342;2022-09-03T01:01:43;20.20;99.90
17988;DHT22;9119;50.932;5.342;2022-09-03T01:15:43;20.10;99.90
17988;DHT22;9119;50.932;5.342;2022-09-03T01:20:54;20.20;99.90
17988;DHT22;9119;50.932;5.342;2022-09-03T01:26:02;20.10;99.90
17988;DHT22;9119;50.932;5.342;2022-09-03T01:28:49;20.20;99.90
17988;DHT22;9119;50.932;5.342;2022-09-03T01:36:52;20.20;99.90
17988;DHT22;9119;50.932;5.342;2022-09-03T01:39:41;20.20;99.90
17988;DHT22;9119;50.932;5.342;2022-09-03T01:42:13;20.20;99.90
17988;DHT22;9119;50.932;5.342;2022-09-03T01:50:41;20.20;99.90
17988;DHT22;9119;50.932;5.342;2022-09-03T02:01:52;20.30;99.90
17988;DHT22;9119;50.932;5.342;2022-09-03T02:04:23;20.40;99.90
17988;DHT22;9119;50.932;5.342;2022-09-03T02:06:53;20.40;99.90
17988;DHT22;9119;50.932;5.342;2022-09-03T02:09:22;20.20;99.90
17988;DHT22;9119;50.932;5.342;2022-09-03T02:12:10;19.90;99.90
17988;DHT22;9119;50.932;5.342;2022-09-03T02:14:39;19.80;99.90
17988;DHT22;9119;50.932;5.342;2022-09-03T02:17:06;19.70;99.90
17988;DHT22;9119;50.932;5.342;2022-09-03T02:19:32;19.60;99.90
17988;DHT22;9119;50.932;5.342;2022-09-03T02:21:59;19.70;99.90
17988;DHT22;9119;50.932;5.342;2022-09-03T02:24:26;19.80;99.90
17988;DHT22;9119;50.932;5.342;2022-09-03T02:26:52;19.80;99.90
17988;DHT22;9119;50.932;5.342;2022-09-03T02:29:19;19.80;99.90
17988;DHT22;9119;50.932;5.342;2022-09-03T02:31:46;19.80;99.90
17988;DHT22;9119;50.932;5.342;2022-09-03T02:34:11;19.70;99.90
17988;DHT22;9119;50.932;5.342;2022-09-03T02:36:43;19.80;99.90
17988;DHT22;9119;50.932;5.342;2022-09-03T02:39:13;20.00;99.90
17988;DHT22;9119;50.932;5.342;2022-09-03T02:41:39;20.00;99.90
17988;DHT22;9119;50.932;5.342;2022-09-03T02:44:18;19.80;99.90
17988;DHT22;9119;50.932;5.342;2022-09-03T02:46:57;19.80;99.90
17988;DHT22;9119;50.932;5.342;2022-09-03T02:49:23;19.70;99.90
17988;DHT22;9119;50.932;5.342;2022-09-03T02:51:48;19.70;99.90
17988;DHT22;9119;50.932;5.342;2022-09-03T02:54:14;19.60;99.90
17988;DHT22;9119;50.932;5.342;2022-09-03T02:56:40;19.50;99.90
17988;DHT22;9119;50.932;5.342;2022-09-03T02:59:07;19.50;99.90
17988;DHT22;9119;50.932;5.342;2022-09-03T03:01:34;19.50;99.90
17988;DHT22;9119;50.932;5.342;2022-09-03T03:03:59;19.50;99.90
17988;DHT22;9119;50.932;5.342;2022-09-03T03:06:25;19.50;99.90
17988;DHT22;9119;50.932;5.342;2022-09-03T03:08:51;19.40;99.90
17988;DHT22;9119;50.932;5.342;2022-09-03T03:11:20;19.40;99.90
17988;DHT22;9119;50.932;5.342;2022-09-03T03:13:46;19.30;99.90
17988;DHT22;9119;50.932;5.342;2022-09-03T03:16:13;19.30;99.90
17988;DHT22;9119;50.932;5.342;2022-09-03T03:18:39;19.40;99.90
17988;DHT22;9119;50.932;5.342;2022-09-03T03:21:05;19.30;99.90
17988;DHT22;9119;50.932;5.342;2022-09-03T03:23:32;19.30;99.90
17988;DHT22;9119;50.932;5.342;2022-09-03T03:26:09;19.30;99.90
17988;DHT22;9119;50.932;5.342;2022-09-03T03:28:35;19.20;99.90
17988;DHT22;9119;50.932;5.342;2022-09-03T03:31:08;19.30;99.90
17988;DHT22;9119;50.932;5.342;2022-09-03T03:33:35;19.10;99.90
17988;DHT22;9119;50.932;5.342;2022-09-03T03:38:35;19.20;99.90
17988;DHT22;9119;50.932;5.342;2022-09-03T03:41:15;19.20;99.90
17988;DHT22;9119;50.932;5.342;2022-09-03T03:43:42;19.10;99.90
17988;DHT22;9119;50.932;5.342;2022-09-03T03:46:07;19.10;99.90
17988;DHT22;9119;50.932;5.342;2022-09-03T03:48:35;19.00;99.90
17988;DHT22;9119;50.932;5.342;2022-09-03T03:51:02;19.10;99.90
17988;DHT22;9119;50.932;5.342;2022-09-03T03:53:34;19.10;99.90
17988;DHT22;9119;50.932;5.342;2022-09-03T03:56:01;19.10;99.90
17988;DHT22;9119;50.932;5.342;2022-09-03T03:58:29;19.10;99.90
17988;DHT22;9119;50.932;5.342;2022-09-03T04:01:07;19.00;99.90
17988;DHT22;9119;50.932;5.342;2022-09-03T04:03:34;19.00;99.90
17988;DHT22;9119;50.932;5.342;2022-09-03T04:06:00;19.00;99.90
17988;DHT22;9119;50.932;5.342;2022-09-03T04:08:27;19.00;99.90
17988;DHT22;9119;50.932;5.342;2022-09-03T04:10:53;18.90;99.90
17988;DHT22;9119;50.932;5.342;2022-09-03T04:13:19;19.00;99.90
17988;DHT22;9119;50.932;5.342;2022-09-03T04:15:45;19.20;99.90
17988;DHT22;9119;50.932;5.342;2022-09-03T04:18:11;19.00;99.90
17988;DHT22;9119;50.932;5.342;2022-09-03T04:20:37;19.00;99.90
17988;DHT22;9119;50.932;5.342;2022-09-03T04:23:04;19.00;99.90
17988;DHT22;9119;50.932;5.342;2022-09-03T04:25:30;18.90;99.90
17988;DHT22;9119;50.932;5.342;2022-09-03T04:27:56;18.90;99.90
17988;DHT22;9119;50.932;5.342;2022-09-03T04:30:22;18.90;99.90
17988;DHT22;9119;50.932;5.342;2022-09-03T04:32:51;19.00;99.90
17988;DHT22;9119;50.932;5.342;2022-09-03T04:35:21;18.90;99.90
17988;DHT22;9119;50.932;5.342;2022-09-03T04:37:47;18.90;99.90
17988;DHT22;9119;50.932;5.342;2022-09-03T04:40:13;18.80;99.90
17988;DHT22;9119;50.932;5.342;2022-09-03T04:42:39;18.80;99.90
17988;DHT22;9119;50.932;5.342;2022-09-03T04:45:05;18.80;99.90
17988;DHT22;9119;50.932;5.342;2022-09-03T04:47:31;18.80;99.90
17988;DHT22;9119;50.932;5.342;2022-09-03T04:49:57;18.70;99.90
17988;DHT22;9119;50.932;5.342;2022-09-03T04:52:23;18.70;99.90
17988;DHT22;9119;50.932;5.342;2022-09-03T04:54:49;18.70;99.90
17988;DHT22;9119;50.932;5.342;2022-09-03T04:57:15;18.80;99.90
17988;DHT22;9119;50.932;5.342;2022-09-03T04:59:41;18.80;99.90
17988;DHT22;9119;50.932;5.342;2022-09-03T05:02:07;18.80;99.90
17988;DHT22;9119;50.932;5.342;2022-09-03T05:04:34;18.80;99.90
17988;DHT22;9119;50.932;5.342;2022-09-03T05:06:59;18.80;99.90
17988;DHT22;9119;50.932;5.342;2022-09-03T05:09:25;18.80;99.90
17988;DHT22;9119;50.932;5.342;2022-09-03T05:11:51;18.80;99.90
17988;DHT22;9119;50.932;5.342;2022-09-03T05:14:17;18.70;99.90
17988;DHT22;9119;50.932;5.342;2022-09-03T05:16:42;18.70;99.90
17988;DHT22;9119;50.932;5.342;2022-09-03T05:19:08;18.70;99.90
17988;DHT22;9119;50.932;5.342;2022-09-03T05:21:36;18.70;99.90
17988;DHT22;9119;50.932;5.342;2022-09-03T05:24:02;18.70;99.90
17988;DHT22;9119;50.932;5.342;2022-09-03T05:26:31;18.70;99.90
17988;DHT22;9119;50.932;5.342;2022-09-03T05:29:01;18.70;99.90
17988;DHT22;9119;50.932;5.342;2022-09-03T05:31:29;18.70;99.90
17988;DHT22;9119;50.932;5.342;2022-09-03T05:33:57;18.70;99.90
17988;DHT22;9119;50.932;5.342;2022-09-03T05:36:27;18.70;99.90
17988;DHT22;9119;50.932;5.342;2022-09-03T05:38:53;18.60;99.90
17988;DHT22;9119;50.932;5.342;2022-09-03T05:41:19;18.80;99.90
17988;DHT22;9119;50.932;5.342;2022-09-03T05:43:50;18.70;99.90
17988;DHT22;9119;50.932;5.342;2022-09-03T05:46:17;18.70;99.90
17988;DHT22;9119;50.932;5.342;2022-09-03T05:48:44;18.70;99.90
17988;DHT22;9119;50.932;5.342;2022-09-03T05:51:16;18.80;99.90
17988;DHT22;9119;50.932;5.342;2022-09-03T05:53:44;18.80;99.90
17988;DHT22;9119;50.932;5.342;2022-09-03T05:56:12;18.80;99.90
17988;DHT22;9119;50.932;5.342;2022-09-03T05:58:41;18.90;99.90
17988;DHT22;9119;50.932;5.342;2022-09-03T06:01:32;19.20;99.90
17988;DHT22;9119;50.932;5.342;2022-09-03T06:04:05;18.90;99.90
17988;DHT22;9119;50.932;5.342;2022-09-03T06:06:34;18.90;99.90
17988;DHT22;9119;50.932;5.342;2022-09-03T06:09:11;18.90;99.90
17988;DHT22;9119;50.932;5.342;2022-09-03T06:11:39;18.90;99.90
17988;DHT22;9119;50.932;5.342;2022-09-03T06:14:06;18.80;99.90
17988;DHT22;9119;50.932;5.342;2022-09-03T06:16:38;18.80;99.90
17988;DHT22;9119;50.932;5.342;2022-09-03T06:19:05;18.90;99.90
17988;DHT22;9119;50.932;5.342;2022-09-03T06:21:35;18.90;99.90
17988;DHT22;9119;50.932;5.342;2022-09-03T06:24:02;18.90;99.90
17988;DHT22;9119;50.932;5.342;2022-09-03T06:26:28;18.90;99.90
17988;DHT22;9119;50.932;5.342;2022-09-03T06:28:54;18.90;99.90
17988;DHT22;9119;50.932;5.342;2022-09-03T06:31:21;18.90;99.90
17988;DHT22;9119;50.932;5.342;2022-09-03T06:33:47;19.20;99.90
17988;DHT22;9119;50.932;5.342;2022-09-03T06:36:16;19.10;99.90
17988;DHT22;9119;50.932;5.342;2022-09-03T06:38:42;19.10;99.90
17988;DHT22;9119;50.932;5.342;2022-09-03T06:41:11;19.10;99.90
17988;DHT22;9119;50.932;5.342;2022-09-03T06:43:39;19.10;99.90
17988;DHT22;9119;50.932;5.342;2022-09-03T06:46:13;19.10;99.90
17988;DHT22;9119;50.932;5.342;2022-09-03T06:48:40;19.10;99.90
17988;DHT22;9119;50.932;5.342;2022-09-03T06:51:07;19.00;99.90
17988;DHT22;9119;50.932;5.342;2022-09-03T06:53:38;19.10;99.90
17988;DHT22;9119;50.932;5.342;2022-09-03T06:56:10;19.20;99.90
17988;DHT22;9119;50.932;5.342;2022-09-03T06:58:38;19.30;99.90
17988;DHT22;9119;50.932;5.342;2022-09-03T07:01:09;19.30;99.90
17988;DHT22;9119;50.932;5.342;2022-09-03T07:03:36;19.50;99.90
17988;DHT22;9119;50.932;5.342;2022-09-03T07:06:17;19.60;99.90
17988;DHT22;9119;50.932;5.342;2022-09-03T07:08:43;19.70;99.90
17988;DHT22;9119;50.932;5.342;2022-09-03T07:11:15;19.90;99.90
17988;DHT22;9119;50.932;5.342;2022-09-03T07:13:43;20.00;99.90
17988;DHT22;9119;50.932;5.342;2022-09-03T07:16:15;20.30;99.90
17988;DHT22;9119;50.932;5.342;2022-09-03T07:18:42;20.50;99.90
17988;DHT22;9119;50.932;5.342;2022-09-03T07:21:25;20.70;99.90
17988;DHT22;9119;50.932;5.342;2022-09-03T07:23:51;20.90;99.90
17988;DHT22;9119;50.932;5.342;2022-09-03T07:26:29;20.90;99.90
17988;DHT22;9119;50.932;5.342;2022-09-03T07:28:56;21.00;99.90
17988;DHT22;9119;50.932;5.342;2022-09-03T07:31:24;20.90;99.90
17988;DHT22;9119;50.932;5.342;2022-09-03T07:34:01;20.90;99.90
17988;DHT22;9119;50.932;5.342;2022-09-03T07:36:35;21.00;99.90
17988;DHT22;9119;50.932;5.342;2022-09-03T07:39:03;21.00;99.90
17988;DHT22;9119;50.932;5.342;2022-09-03T07:41:29;21.10;99.90
17988;DHT22;9119;50.932;5.342;2022-09-03T07:43:58;21.20;99.90
17988;DHT22;9119;50.932;5.342;2022-09-03T07:46:26;21.40;99.90
17988;DHT22;9119;50.932;5.342;2022-09-03T07:48:53;21.50;99.90
17988;DHT22;9119;50.932;5.342;2022-09-03T07:51:21;21.60;99.90
17988;DHT22;9119;50.932;5.342;2022-09-03T07:53:48;21.60;99.90
17988;DHT22;9119;50.932;5.342;2022-09-03T07:56:16;21.70;99.90
17988;DHT22;9119;50.932;5.342;2022-09-03T07:58:42;21.90;99.90
17988;DHT22;9119;50.932;5.342;2022-09-03T08:01:10;22.20;99.90
17988;DHT22;9119;50.932;5.342;2022-09-03T08:03:37;22.20;99.90
17988;DHT22;9119;50.932;5.342;2022-09-03T08:06:05;22.40;99.90
17988;DHT22;9119;50.932;5.342;2022-09-03T08:08:32;22.50;99.90
17988;DHT22;9119;50.932;5.342;2022-09-03T08:11:10;22.60;99.90
17988;DHT22;9119;50.932;5.342;2022-09-03T08:13:40;22.60;99.90
17988;DHT22;9119;50.932;5.342;2022-09-03T08:16:06;22.50;99.90
17988;DHT22;9119;50.932;5.342;2022-09-03T08:18:35;22.60;99.90
17988;DHT22;9119;50.932;5.342;2022-09-03T08:21:08;22.60;99.90
17988;DHT22;9119;50.932;5.342;2022-09-03T08:23:38;22.60;99.90
17988;DHT22;9119;50.932;5.342;2022-09-03T08:26:04;22.70;99.90
17988;DHT22;9119;50.932;5.342;2022-09-03T08:28:31;22.80;99.90
17988;DHT22;9119;50.932;5.342;2022-09-03T08:31:09;23.00;99.90
17988;DHT22;9119;50.932;5.342;2022-09-03T08:33:37;23.20;99.90
17988;DHT22;9119;50.932;5.342;2022-09-03T08:36:14;23.40;99.90
17988;DHT22;9119;50.932;5.342;2022-09-03T08:38:41;23.20;99.90
17988;DHT22;9119;50.932;5.342;2022-09-03T08:41:16;23.20;99.90
17988;DHT22;9119;50.932;5.342;2022-09-03T08:49:14;23.80;99.90
17988;DHT22;9119;50.932;5.342;2022-09-03T08:51:42;24.40;99.90
17988;DHT22;9119;50.932;5.342;2022-09-03T08:54:09;24.40;99.90
17988;DHT22;9119;50.932;5.342;2022-09-03T08:56:39;24.10;99.90
17988;DHT22;9119;50.932;5.342;2022-09-03T08:59:07;23.90;99.90
17988;DHT22;9119;50.932;5.342;2022-09-03T09:01:38;23.80;99.90
17988;DHT22;9119;50.932;5.342;2022-09-03T09:15:27;25.40;99.90
17988;DHT22;9119;50.932;5.342;2022-09-03T09:18:09;26.40;99.90
17988;DHT22;9119;50.932;5.342;2022-09-03T09:20:47;26.80;99.90
17988;DHT22;9119;50.932;5.342;2022-09-03T09:26:07;27.80;99.90
17988;DHT22;9119;50.932;5.342;2022-09-03T09:28:36;28.20;99.90
17988;DHT22;9119;50.932;5.342;2022-09-03T09:31:04;28.80;99.90
17988;DHT22;9119;50.932;5.342;2022-09-03T09:33:33;28.90;99.90
17988;DHT22;9119;50.932;5.342;2022-09-03T09:36:12;29.20;99.90
17988;DHT22;9119;50.932;5.342;2022-09-03T09:38:41;29.00;99.90
17988;DHT22;9119;50.932;5.342;2022-09-03T09:43:34;28.90;99.90
17988;DHT22;9119;50.932;5.342;2022-09-03T09:46:12;28.40;99.90
17988;DHT22;9119;50.932;5.342;2022-09-03T09:48:50;28.10;99.90
17988;DHT22;9119;50.932;5.342;2022-09-03T09:53:45;26.70;99.90
17988;DHT22;9119;50.932;5.342;2022-09-03T09:56:24;26.60;99.90
17988;DHT22;9119;50.932;5.342;2022-09-03T09:59:10;26.60;99.90
17988;DHT22;9119;50.932;5.342;2022-09-03T10:01:40;26.50;99.90
17988;DHT22;9119;50.932;5.342;2022-09-03T10:04:21;26.80;99.90
17988;DHT22;9119;50.932;5.342;2022-09-03T10:06:54;26.40;99.90
17988;DHT22;9119;50.932;5.342;2022-09-03T10:09:32;25.90;99.90
17988;DHT22;9119;50.932;5.342;2022-09-03T10:14:29;25.90;99.90
17988;DHT22;9119;50.932;5.342;2022-09-03T10:20:14;25.70;99.90
17988;DHT22;9119;50.932;5.342;2022-09-03T10:22:57;25.60;99.90
17988;DHT22;9119;50.932;5.342;2022-09-03T10:25:40;25.40;99.90
17988;DHT22;9119;50.932;5.342;2022-09-03T10:28:08;25.40;99.90
17988;DHT22;9119;50.932;5.342;2022-09-03T10:33:39;25.70;99.90
17988;DHT22;9119;50.932;5.342;2022-09-03T10:36:22;25.90;99.90
17988;DHT22;9119;50.932;5.342;2022-09-03T10:41:47;26.60;99.90
17988;DHT22;9119;50.932;5.342;2022-09-03T10:55:51;29.00;99.90
17988;DHT22;9119;50.932;5.342;2022-09-03T11:06:56;30.50;99.90
17988;DHT22;9119;50.932;5.342;2022-09-03T11:12:02;31.00;99.90
17988;DHT22;9119;50.932;5.342;2022-09-03T11:14:34;30.80;99.90
17988;DHT22;9119;50.932;5.342;2022-09-03T11:17:13;30.20;99.90
17988;DHT22;9119;50.932;5.342;2022-09-03T11:19:48;30.50;99.90
17988;DHT22;9119;50.932;5.342;2022-09-03T11:22:16;29.70;99.90
17988;DHT22;9119;50.932;5.342;2022-09-03T11:24:45;28.70;99.90
17988;DHT22;9119;50.932;5.342;2022-09-03T11:30:02;30.20;99.90
17988;DHT22;9119;50.932;5.342;2022-09-03T11:32:48;31.40;99.90
17988;DHT22;9119;50.932;5.342;2022-09-03T11:38:07;31.20;99.90
17988;DHT22;9119;50.932;5.342;2022-09-03T11:41:09;30.90;99.90
17988;DHT22;9119;50.932;5.342;2022-09-03T11:43:37;29.50;99.90
17988;DHT22;9119;50.932;5.342;2022-09-03T11:48:43;28.00;99.90
17988;DHT22;9119;50.932;5.342;2022-09-03T11:51:33;27.60;99.90
17988;DHT22;9119;50.932;5.342;2022-09-03T11:54:05;27.20;99.90
17988;DHT22;9119;50.932;5.342;2022-09-03T11:56:32;26.90;99.90
17988;DHT22;9119;50.932;5.342;2022-09-03T11:59:24;26.90;99.90
17988;DHT22;9119;50.932;5.342;2022-09-03T12:02:00;26.90;99.90
17988;DHT22;9119;50.932;5.342;2022-09-03T12:19:57;27.20;99.90
17988;DHT22;9119;50.932;5.342;2022-09-03T12:22:26;27.00;99.90
17988;DHT22;9119;50.932;5.342;2022-09-03T12:25:10;27.00;99.90
17988;DHT22;9119;50.932;5.342;2022-09-03T12:27:37;27.10;99.90
17988;DHT22;9119;50.932;5.342;2022-09-03T12:30:04;27.20;99.90
17988;DHT22;9119;50.932;5.342;2022-09-03T12:32:32;27.10;99.90
17988;DHT22;9119;50.932;5.342;2022-09-03T12:35:19;27.20;99.90
17988;DHT22;9119;50.932;5.342;2022-09-03T12:37:45;27.20;99.90
17988;DHT22;9119;50.932;5.342;2022-09-03T12:40:19;27.40;99.90
17988;DHT22;9119;50.932;5.342;2022-09-03T12:42:46;27.50;99.90
17988;DHT22;9119;50.932;5.342;2022-09-03T12:45:12;27.60;99.90
17988;DHT22;9119;50.932;5.342;2022-09-03T12:47:41;27.60;99.90
17988;DHT22;9119;50.932;5.342;2022-09-03T12:50:15;27.50;99.90
17988;DHT22;9119;50.932;5.342;2022-09-03T12:53:09;27.50;99.90
17988;DHT22;9119;50.932;5.342;2022-09-03T12:55:56;27.30;99.90
17988;DHT22;9119;50.932;5.342;2022-09-03T13:04:13;27.50;99.90
17988;DHT22;9119;50.932;5.342;2022-09-03T13:09:15;27.60;99.90
17988;DHT22;9119;50.932;5.342;2022-09-03T13:11:44;27.60;99.90
17988;DHT22;9119;50.932;5.342;2022-09-03T13:14:13;27.60;99.90
17988;DHT22;9119;50.932;5.342;2022-09-03T13:27:31;27.50;99.90
17988;DHT22;9119;50.932;5.342;2022-09-03T13:30:11;27.50;99.90
17988;DHT22;9119;50.932;5.342;2022-09-03T13:32:59;27.50;99.90
17988;DHT22;9119;50.932;5.342;2022-09-03T13:38:08;27.60;99.90
17988;DHT22;9119;50.932;5.342;2022-09-03T13:40:48;27.70;99.90
17988;DHT22;9119;50.932;5.342;2022-09-03T13:43:33;27.60;99.90
17988;DHT22;9119;50.932;5.342;2022-09-03T13:46:15;27.40;99.90
17988;DHT22;9119;50.932;5.342;2022-09-03T13:48:44;27.20;99.90
17988;DHT22;9119;50.932;5.342;2022-09-03T13:54:54;27.00;99.90
17988;DHT22;9119;50.932;5.342;2022-09-03T13:57:39;27.00;99.90
17988;DHT22;9119;50.932;5.342;2022-09-03T14:00:13;27.30;99.90
17988;DHT22;9119;50.932;5.342;2022-09-03T14:02:53;27.50;99.90
17988;DHT22;9119;50.932;5.342;2022-09-03T14:10:53;27.20;99.90
17988;DHT22;9119;50.932;5.342;2022-09-03T14:13:37;27.00;99.90
17988;DHT22;9119;50.932;5.342;2022-09-03T14:18:59;26.80;99.90
17988;DHT22;9119;50.932;5.342;2022-09-03T14:21:34;26.70;99.90
17988;DHT22;9119;50.932;5.342;2022-09-03T14:24:11;26.50;99.90
17988;DHT22;9119;50.932;5.342;2022-09-03T14:26:49;26.50;99.90
17988;DHT22;9119;50.932;5.342;2022-09-03T14:29:16;26.60;99.90
17988;DHT22;9119;50.932;5.342;2022-09-03T14:34:57;26.40;99.90
17988;DHT22;9119;50.932;5.342;2022-09-03T14:45:40;26.10;99.90
17988;DHT22;9119;50.932;5.342;2022-09-03T14:51:12;26.30;99.90
17988;DHT22;9119;50.932;5.342;2022-09-03T15:01:31;26.30;99.90
17988;DHT22;9119;50.932;5.342;2022-09-03T15:09:37;26.50;99.90
17988;DHT22;9119;50.932;5.342;2022-09-03T15:12:20;26.60;99.90
17988;DHT22;9119;50.932;5.342;2022-09-03T15:14:58;26.50;99.90
17988;DHT22;9119;50.932;5.342;2022-09-03T15:17:54;26.50;99.90
17988;DHT22;9119;50.932;5.342;2022-09-03T15:23:48;26.50;99.90
17988;DHT22;9119;50.932;5.342;2022-09-03T15:37:36;26.30;99.90
17988;DHT22;9119;50.932;5.342;2022-09-03T15:40:21;26.30;99.90
17988;DHT22;9119;50.932;5.342;2022-09-03T15:42:54;26.30;99.90
17988;DHT22;9119;50.932;5.342;2022-09-03T15:45:30;26.10;99.90
17988;DHT22;9119;50.932;5.342;2022-09-03T15:48:09;25.90;99.90
17988;DHT22;9119;50.932;5.342;2022-09-03T15:50:57;25.70;99.90
17988;DHT22;9119;50.932;5.342;2022-09-03T15:54:14;25.60;99.90
17988;DHT22;9119;50.932;5.342;2022-09-03T16:02:14;25.60;99.90
17988;DHT22;9119;50.932;5.342;2022-09-03T16:04:55;25.70;99.90
17988;DHT22;9119;50.932;5.342;2022-09-03T16:08:03;25.80;99.90
17988;DHT22;9119;50.932;5.342;2022-09-03T16:10:39;25.80;99.90
17988;DHT22;9119;50.932;5.342;2022-09-03T16:13:31;25.90;99.90
17988;DHT22;9119;50.932;5.342;2022-09-03T16:16:04;25.80;99.90
17988;DHT22;9119;50.932;5.342;2022-09-03T16:18:41;26.00;99.90
17988;DHT22;9119;50.932;5.342;2022-09-03T16:21:13;26.00;99.90
17988;DHT22;9119;50.932;5.342;2022-09-03T16:23:56;26.10;99.90
17988;DHT22;9119;50.932;5.342;2022-09-03T16:26:39;26.10;99.90
17988;DHT22;9119;50.932;5.342;2022-09-03T16:29:14;26.00;99.90
17988;DHT22;9119;50.932;5.342;2022-09-03T16:34:50;25.80;99.90
17988;DHT22;9119;50.932;5.342;2022-09-03T16:42:44;25.70;99.90
17988;DHT22;9119;50.932;5.342;2022-09-03T16:45:45;25.80;99.90
17988;DHT22;9119;50.932;5.342;2022-09-03T17:10:36;25.60;99.90
17988;DHT22;9119;50.932;5.342;2022-09-03T17:25:00;25.40;99.90
17988;DHT22;9119;50.932;5.342;2022-09-03T17:27:35;25.40;99.90
17988;DHT22;9119;50.932;5.342;2022-09-03T17:30:06;25.40;99.90
17988;DHT22;9119;50.932;5.342;2022-09-03T17:48:50;25.30;99.90
17988;DHT22;9119;50.932;5.342;2022-09-03T17:54:42;25.20;99.90
17988;DHT22;9119;50.932;5.342;2022-09-03T18:05:24;25.20;99.90
17988;DHT22;9119;50.932;5.342;2022-09-03T18:08:23;25.20;99.90
17988;DHT22;9119;50.932;5.342;2022-09-03T18:11:40;25.20;99.90
17988;DHT22;9119;50.932;5.342;2022-09-03T18:16:34;25.10;99.90
17988;DHT22;9119;50.932;5.342;2022-09-03T18:19:35;25.10;99.90
17988;DHT22;9119;50.932;5.342;2022-09-03T18:22:30;25.10;99.90
17988;DHT22;9119;50.932;5.342;2022-09-03T18:25:16;25.00;99.90
17988;DHT22;9119;50.932;5.342;2022-09-03T18:28:07;24.90;99.90
17988;DHT22;9119;50.932;5.342;2022-09-03T18:30:52;24.80;99.90
17988;DHT22;9119;50.932;5.342;2022-09-03T18:33:36;24.50;99.90
17988;DHT22;9119;50.932;5.342;2022-09-03T18:36:21;24.70;99.90
17988;DHT22;9119;50.932;5.342;2022-09-03T18:39:25;24.70;99.90
17988;DHT22;9119;50.932;5.342;2022-09-03T18:42:25;24.70;99.90
17988;DHT22;9119;50.932;5.342;2022-09-03T18:45:38;24.70;99.90
17988;DHT22;9119;50.932;5.342;2022-09-03T18:48:35;24.70;99.90
17988;DHT22;9119;50.932;5.342;2022-09-03T18:51:45;24.60;99.90
17988;DHT22;9119;50.932;5.342;2022-09-03T18:57:25;24.60;99.90
17988;DHT22;9119;50.932;5.342;2022-09-03T19:00:14;24.70;99.90
17988;DHT22;9119;50.932;5.342;2022-09-03T19:06:14;24.60;99.90
17988;DHT22;9119;50.932;5.342;2022-09-03T19:09:20;24.50;99.90
17988;DHT22;9119;50.932;5.342;2022-09-03T19:15:40;24.40;99.90
17988;DHT22;9119;50.932;5.342;2022-09-03T19:18:46;24.40;99.90
17988;DHT22;9119;50.932;5.342;2022-09-03T19:21:42;24.30;99.90
17988;DHT22;9119;50.932;5.342;2022-09-03T19:24:30;24.20;99.90
17988;DHT22;9119;50.932;5.342;2022-09-03T19:30:31;23.80;99.90
17988;DHT22;9119;50.932;5.342;2022-09-03T19:48:43;23.70;99.90
17988;DHT22;9119;50.932;5.342;2022-09-03T19:51:39;23.70;99.90
17988;DHT22;9119;50.932;5.342;2022-09-03T19:54:27;23.70;99.90
17988;DHT22;9119;50.932;5.342;2022-09-03T19:57:14;23.60;99.90
17988;DHT22;9119;50.932;5.342;2022-09-03T19:59:59;23.50;99.90
17988;DHT22;9119;50.932;5.342;2022-09-03T20:02:47;23.50;99.90
17988;DHT22;9119;50.932;5.342;2022-09-03T20:05:32;23.60;99.90
17988;DHT22;9119;50.932;5.342;2022-09-03T20:08:18;23.60;99.90
17988;DHT22;9119;50.932;5.342;2022-09-03T20:11:03;23.50;99.90
17988;DHT22;9119;50.932;5.342;2022-09-03T20:13:30;23.50;99.90
17988;DHT22;9119;50.932;5.342;2022-09-03T20:16:38;23.50;99.90
17988;DHT22;9119;50.932;5.342;2022-09-03T20:21:58;23.30;99.90
17988;DHT22;9119;50.932;5.342;2022-09-03T20:24:45;23.20;99.90
17988;DHT22;9119;50.932;5.342;2022-09-03T20:27:29;23.30;99.90
17988;DHT22;9119;50.932;5.342;2022-09-03T20:30:09;23.20;99.90
17988;DHT22;9119;50.932;5.342;2022-09-03T20:35:40;23.00;99.90
17988;DHT22;9119;50.932;5.342;2022-09-03T20:40:52;22.60;99.90
17988;DHT22;9119;50.932;5.342;2022-09-03T20:52:00;22.50;99.90
17988;DHT22;9119;50.932;5.342;2022-09-03T21:00:14;22.40;99.90
17988;DHT22;9119;50.932;5.342;2022-09-03T21:02:59;22.40;99.90
17988;DHT22;9119;50.932;5.342;2022-09-03T21:05:56;22.30;99.90
17988;DHT22;9119;50.932;5.342;2022-09-03T21:11:10;22.20;99.90
17988;DHT22;9119;50.932;5.342;2022-09-03T21:13:55;22.10;99.90
17988;DHT22;9119;50.932;5.342;2022-09-03T21:23:05;21.90;99.90
17988;DHT22;9119;50.932;5.342;2022-09-03T21:28:26;21.80;99.90
17988;DHT22;9119;50.932;5.342;2022-09-03T21:30:58;21.80;99.90
17988;DHT22;9119;50.932;5.342;2022-09-03T21:33:32;21.70;99.90
17988;DHT22;9119;50.932;5.342;2022-09-03T21:36:08;21.60;99.90
17988;DHT22;9119;50.932;5.342;2022-09-03T21:38:37;21.60;99.90
17988;DHT22;9119;50.932;5.342;2022-09-03T21:41:29;21.70;99.90
17988;DHT22;9119;50.932;5.342;2022-09-03T21:44:33;21.50;99.90
17988;DHT22;9119;50.932;5.342;2022-09-03T21:46:58;21.60;99.90
17988;DHT22;9119;50.932;5.342;2022-09-03T21:52:21;21.70;99.90
17988;DHT22;9119;50.932;5.342;2022-09-03T21:54:49;21.70;99.90
17988;DHT22;9119;50.932;5.342;2022-09-03T21:57:33;21.60;99.90
17988;DHT22;9119;50.932;5.342;2022-09-03T22:00:10;21.50;99.90
17988;DHT22;9119;50.932;5.342;2022-09-03T22:02:37;21.40;99.90
17988;DHT22;9119;50.932;5.342;2022-09-03T22:05:03;21.50;99.90
17988;DHT22;9119;50.932;5.342;2022-09-03T22:07:58;21.50;99.90
17988;DHT22;9119;50.932;5.342;2022-09-03T22:13:47;21.40;99.90
17988;DHT22;9119;50.932;5.342;2022-09-03T22:16:38;21.30;99.90
17988;DHT22;9119;50.932;5.342;2022-09-03T22:19:07;21.30;99.90
17988;DHT22;9119;50.932;5.342;2022-09-03T22:21:50;21.40;99.90
17988;DHT22;9119;50.932;5.342;2022-09-03T22:24:28;21.30;99.90
17988;DHT22;9119;50.932;5.342;2022-09-03T22:32:48;21.40;99.90
17988;DHT22;9119;50.932;5.342;2022-09-03T22:38:22;21.30;99.90
17988;DHT22;9119;50.932;5.342;2022-09-03T22:43:42;21.30;99.90
17988;DHT22;9119;50.932;5.342;2022-09-03T22:46:12;21.40;99.90